sensor_id;sensor_type;location;lat;lon;timestamp;temperature;humidity
4749;DHT22;2388;53.582;9.962;2022-10-20T00:01:16;9.20;99.90
4749;DHT22;2388;53.582;9.962;2022-10-20T00:03:42;9.30;99.90
4749;DHT22;2388;53.582;9.962;2022-10-20T00:06:10;9.20;99.90
4749;DHT22;2388;53.582;9.962;2022-10-20T00:08:37;9.20;99.90
4749;DHT22;2388;53.582;9.962;2022-10-20T00:11:02;9.30;99.90
4749;DHT22;2388;53.582;9.962;2022-10-20T00:13:28;9.30;99.90
4749;DHT22;2388;53.582;9.962;2022-10-20T00:15:55;9.20;99.90
4749;DHT22;2388;53.582;9.962;2022-10-20T00:18:22;9.20;99.90
4749;DHT22;2388;53.582;9.962;2022-10-20T00:20:48;9.10;99.90
4749;DHT22;2388;53.582;9.962;2022-10-20T00:23:14;9.10;99.90
4749;DHT22;2388;53.582;9.962;2022-10-20T00:25:39;9.10;99.90
4749;DHT22;2388;53.582;9.962;2022-10-20T00:28:05;9.10;99.90
4749;DHT22;2388;53.582;9.962;2022-10-20T00:30:32;9.10;99.90
4749;DHT22;2388;53.582;9.962;2022-10-20T00:32:58;9.10;99.90
4749;DHT22;2388;53.582;9.962;2022-10-20T00:35:23;9.10;99.90
4749;DHT22;2388;53.582;9.962;2022-10-20T00:37:49;9.10;99.90
4749;DHT22;2388;53.582;9.962;2022-10-20T00:40:14;9.10;99.90
4749;DHT22;2388;53.582;9.962;2022-10-20T00:42:47;9.20;99.90
4749;DHT22;2388;53.582;9.962;2022-10-20T00:45:16;9.20;99.90
4749;DHT22;2388;53.582;9.962;2022-10-20T00:47:53;9.20;99.90
4749;DHT22;2388;53.582;9.962;2022-10-20T00:50:37;9.30;99.90
4749;DHT22;2388;53.582;9.962;2022-10-20T00:53:04;9.20;99.90
4749;DHT22;2388;53.582;9.962;2022-10-20T00:55:33;9.20;99.90
4749;DHT22;2388;53.582;9.962;2022-10-20T00:58:00;9.10;99.90
4749;DHT22;2388;53.582;9.962;2022-10-20T01:00:26;9.10;99.90
4749;DHT22;2388;53.582;9.962;2022-10-20T01:02:54;9.10;99.90
4749;DHT22;2388;53.582;9.962;2022-10-20T01:05:21;9.00;99.90
4749;DHT22;2388;53.582;9.962;2022-10-20T01:07:47;9.10;99.90
4749;DHT22;2388;53.582;9.962;2022-10-20T01:10:13;9.00;99.90
4749;DHT22;2388;53.582;9.962;2022-10-20T01:12:59;9.00;99.90
4749;DHT22;2388;53.582;9.962;2022-10-20T01:15:33;9.00;99.90
4749;DHT22;2388;53.582;9.962;2022-10-20T01:18:08;8.90;99.90
4749;DHT22;2388;53.582;9.962;2022-10-20T01:23:39;9.00;99.90
4749;DHT22;2388;53.582;9.962;2022-10-20T01:26:38;9.00;99.90
4749;DHT22;2388;53.582;9.962;2022-10-20T01:32:19;8.90;99.90
4749;DHT22;2388;53.582;9.962;2022-10-20T01:35:13;9.00;99.90
4749;DHT22;2388;53.582;9.962;2022-10-20T01:43:09;8.90;99.90
4749;DHT22;2388;53.582;9.962;2022-10-20T01:45:38;8.90;99.90
4749;DHT22;2388;53.582;9.962;2022-10-20T01:48:06;8.90;99.90
4749;DHT22;2388;53.582;9.962;2022-10-20T01:50:35;8.90;99.90
4749;DHT22;2388;53.582;9.962;2022-10-20T01:53:01;8.90;99.90
4749;DHT22;2388;53.582;9.962;2022-10-20T01:55:27;8.90;99.90
4749;DHT22;2388;53.582;9.962;2022-10-20T02:00:46;8.80;99.90
4749;DHT22;2388;53.582;9.962;2022-10-20T02:03:31;8.80;99.90
4749;DHT22;2388;53.582;9.962;2022-10-20T02:06:17;8.90;99.90
4749;DHT22;2388;53.582;9.962;2022-10-20T02:08:50;8.80;99.90
4749;DHT22;2388;53.582;9.962;2022-10-20T02:11:24;8.80;99.90
4749;DHT22;2388;53.582;9.962;2022-10-20T02:13:53;8.80;99.90
4749;DHT22;2388;53.582;9.962;2022-10-20T02:16:28;8.80;99.90
4749;DHT22;2388;53.582;9.962;2022-10-20T02:18:55;8.70;99.90
4749;DHT22;2388;53.582;9.962;2022-10-20T02:21:22;8.70;99.90
4749;DHT22;2388;53.582;9.962;2022-10-20T02:23:49;8.70;99.90
4749;DHT22;2388;53.582;9.962;2022-10-20T02:26:18;8.70;99.90
4749;DHT22;2388;53.582;9.962;2022-10-20T02:28:48;8.70;99.90
4749;DHT22;2388;53.582;9.962;2022-10-20T02:31:16;8.70;99.90
4749;DHT22;2388;53.582;9.962;2022-10-20T02:33:42;8.60;99.90
4749;DHT22;2388;53.582;9.962;2022-10-20T02:36:15;8.50;99.90
4749;DHT22;2388;53.582;9.962;2022-10-20T02:38:41;8.50;99.90
4749;DHT22;2388;53.582;9.962;2022-10-20T02:41:06;8.40;99.90
4749;DHT22;2388;53.582;9.962;2022-10-20T02:43:32;8.40;99.90
4749;DHT22;2388;53.582;9.962;2022-10-20T02:45:57;8.30;99.90
4749;DHT22;2388;53.582;9.962;2022-10-20T02:48:23;8.30;99.90
4749;DHT22;2388;53.582;9.962;2022-10-20T02:50:48;8.30;99.90
4749;DHT22;2388;53.582;9.962;2022-10-20T02:53:14;8.30;99.90
4749;DHT22;2388;53.582;9.962;2022-10-20T02:55:41;8.20;99.90
4749;DHT22;2388;53.582;9.962;2022-10-20T02:58:06;8.20;99.90
4749;DHT22;2388;53.582;9.962;2022-10-20T03:00:32;8.20;99.90
4749;DHT22;2388;53.582;9.962;2022-10-20T03:02:57;8.20;99.90
4749;DHT22;2388;53.582;9.962;2022-10-20T03:05:23;8.20;99.90
4749;DHT22;2388;53.582;9.962;2022-10-20T03:07:49;8.20;99.90
4749;DHT22;2388;53.582;9.962;2022-10-20T03:10:15;8.20;99.90
4749;DHT22;2388;53.582;9.962;2022-10-20T03:12:40;8.20;99.90
4749;DHT22;2388;53.582;9.962;2022-10-20T03:15:06;8.10;99.90
4749;DHT22;2388;53.582;9.962;2022-10-20T03:17:31;8.10;99.90
4749;DHT22;2388;53.582;9.962;2022-10-20T03:19:57;8.10;99.90
4749;DHT22;2388;53.582;9.962;2022-10-20T03:22:22;8.00;99.90
4749;DHT22;2388;53.582;9.962;2022-10-20T03:24:48;8.00;99.90
4749;DHT22;2388;53.582;9.962;2022-10-20T03:27:13;8.00;99.90
4749;DHT22;2388;53.582;9.962;2022-10-20T03:29:39;7.90;99.90
4749;DHT22;2388;53.582;9.962;2022-10-20T03:32:04;7.90;99.90
4749;DHT22;2388;53.582;9.962;2022-10-20T03:34:30;7.90;99.90
4749;DHT22;2388;53.582;9.962;2022-10-20T03:36:55;7.90;99.90
4749;DHT22;2388;53.582;9.962;2022-10-20T03:39:21;7.90;99.90
4749;DHT22;2388;53.582;9.962;2022-10-20T03:41:46;7.90;99.90
4749;DHT22;2388;53.582;9.962;2022-10-20T03:44:12;7.90;99.90
4749;DHT22;2388;53.582;9.962;2022-10-20T03:46:37;7.80;99.90
4749;DHT22;2388;53.582;9.962;2022-10-20T03:49:03;7.80;99.90
4749;DHT22;2388;53.582;9.962;2022-10-20T03:51:28;7.80;99.90
4749;DHT22;2388;53.582;9.962;2022-10-20T03:53:54;7.70;99.90
4749;DHT22;2388;53.582;9.962;2022-10-20T03:56:20;7.80;99.90
4749;DHT22;2388;53.582;9.962;2022-10-20T03:58:46;7.80;99.90
4749;DHT22;2388;53.582;9.962;2022-10-20T04:01:17;7.80;99.90
4749;DHT22;2388;53.582;9.962;2022-10-20T04:03:44;7.70;99.90
4749;DHT22;2388;53.582;9.962;2022-10-20T04:06:11;7.70;99.90
4749;DHT22;2388;53.582;9.962;2022-10-20T04:08:37;7.70;99.90
4749;DHT22;2388;53.582;9.962;2022-10-20T04:11:03;7.70;99.90
4749;DHT22;2388;53.582;9.962;2022-10-20T04:13:28;7.70;99.90
4749;DHT22;2388;53.582;9.962;2022-10-20T04:15:54;7.70;99.90
4749;DHT22;2388;53.582;9.962;2022-10-20T04:18:19;7.70;99.90
4749;DHT22;2388;53.582;9.962;2022-10-20T04:20:46;7.70;99.90
4749;DHT22;2388;53.582;9.962;2022-10-20T04:23:12;7.70;99.90
4749;DHT22;2388;53.582;9.962;2022-10-20T04:25:41;7.70;99.90
4749;DHT22;2388;53.582;9.962;2022-10-20T04:28:11;7.60;99.90
4749;DHT22;2388;53.582;9.962;2022-10-20T04:30:38;7.60;99.90
4749;DHT22;2388;53.582;9.962;2022-10-20T04:33:03;7.60;99.90
4749;DHT22;2388;53.582;9.962;2022-10-20T04:35:29;7.60;99.90
4749;DHT22;2388;53.582;9.962;2022-10-20T04:37:54;7.60;99.90
4749;DHT22;2388;53.582;9.962;2022-10-20T04:40:20;7.60;99.90
4749;DHT22;2388;53.582;9.962;2022-10-20T04:42:45;7.50;99.90
4749;DHT22;2388;53.582;9.962;2022-10-20T04:45:11;7.50;99.90
4749;DHT22;2388;53.582;9.962;2022-10-20T04:47:36;7.50;99.90
4749;DHT22;2388;53.582;9.962;2022-10-20T04:50:02;7.50;99.90
4749;DHT22;2388;53.582;9.962;2022-10-20T04:52:28;7.50;99.90
4749;DHT22;2388;53.582;9.962;2022-10-20T04:54:54;7.50;99.90
4749;DHT22;2388;53.582;9.962;2022-10-20T04:57:19;7.50;99.90
4749;DHT22;2388;53.582;9.962;2022-10-20T04:59:45;7.40;99.90
4749;DHT22;2388;53.582;9.962;2022-10-20T05:02:10;7.40;99.90
4749;DHT22;2388;53.582;9.962;2022-10-20T05:04:36;7.30;99.90
4749;DHT22;2388;53.582;9.962;2022-10-20T05:07:01;7.40;99.90
4749;DHT22;2388;53.582;9.962;2022-10-20T05:09:27;7.30;99.90
4749;DHT22;2388;53.582;9.962;2022-10-20T05:11:53;7.40;99.90
4749;DHT22;2388;53.582;9.962;2022-10-20T05:14:19;7.30;99.90
4749;DHT22;2388;53.582;9.962;2022-10-20T05:16:44;7.30;99.90
4749;DHT22;2388;53.582;9.962;2022-10-20T05:19:10;7.30;99.90
4749;DHT22;2388;53.582;9.962;2022-10-20T05:21:36;7.30;99.90
4749;DHT22;2388;53.582;9.962;2022-10-20T05:24:03;7.30;99.90
4749;DHT22;2388;53.582;9.962;2022-10-20T05:26:31;7.20;99.90
4749;DHT22;2388;53.582;9.962;2022-10-20T05:28:59;7.10;99.90
4749;DHT22;2388;53.582;9.962;2022-10-20T05:31:25;7.20;99.90
4749;DHT22;2388;53.582;9.962;2022-10-20T05:33:53;7.20;99.90
4749;DHT22;2388;53.582;9.962;2022-10-20T05:36:21;7.10;99.90
4749;DHT22;2388;53.582;9.962;2022-10-20T05:38:48;7.10;99.90
4749;DHT22;2388;53.582;9.962;2022-10-20T05:41:17;7.10;99.90
4749;DHT22;2388;53.582;9.962;2022-10-20T05:43:49;7.10;99.90
4749;DHT22;2388;53.582;9.962;2022-10-20T05:46:16;7.10;99.90
4749;DHT22;2388;53.582;9.962;2022-10-20T05:48:42;7.10;99.90
4749;DHT22;2388;53.582;9.962;2022-10-20T05:51:16;7.10;99.90
4749;DHT22;2388;53.582;9.962;2022-10-20T05:53:42;7.20;99.90
4749;DHT22;2388;53.582;9.962;2022-10-20T05:56:10;7.20;99.90
4749;DHT22;2388;53.582;9.962;2022-10-20T05:58:37;7.10;99.90
4749;DHT22;2388;53.582;9.962;2022-10-20T06:03:32;7.10;99.90
4749;DHT22;2388;53.582;9.962;2022-10-20T06:05:59;7.10;99.90
4749;DHT22;2388;53.582;9.962;2022-10-20T06:08:27;7.20;99.90
4749;DHT22;2388;53.582;9.962;2022-10-20T06:10:53;7.10;99.90
4749;DHT22;2388;53.582;9.962;2022-10-20T06:13:19;7.00;99.90
4749;DHT22;2388;53.582;9.962;2022-10-20T06:15:44;7.10;99.90
4749;DHT22;2388;53.582;9.962;2022-10-20T06:18:12;7.10;99.90
4749;DHT22;2388;53.582;9.962;2022-10-20T06:20:37;7.10;99.90
4749;DHT22;2388;53.582;9.962;2022-10-20T06:23:03;7.20;99.90
4749;DHT22;2388;53.582;9.962;2022-10-20T06:25:28;7.20;99.90
4749;DHT22;2388;53.582;9.962;2022-10-20T06:27:54;7.20;99.90
4749;DHT22;2388;53.582;9.962;2022-10-20T06:30:19;7.20;99.90
4749;DHT22;2388;53.582;9.962;2022-10-20T06:32:45;7.30;99.90
4749;DHT22;2388;53.582;9.962;2022-10-20T06:35:10;7.30;99.90
4749;DHT22;2388;53.582;9.962;2022-10-20T06:37:36;7.30;99.90
4749;DHT22;2388;53.582;9.962;2022-10-20T06:40:02;7.40;99.90
4749;DHT22;2388;53.582;9.962;2022-10-20T06:42:27;7.50;99.90
4749;DHT22;2388;53.582;9.962;2022-10-20T06:44:53;7.50;99.90
4749;DHT22;2388;53.582;9.962;2022-10-20T06:47:19;7.50;99.90
4749;DHT22;2388;53.582;9.962;2022-10-20T06:49:47;7.50;99.90
4749;DHT22;2388;53.582;9.962;2022-10-20T06:52:12;7.70;99.90
4749;DHT22;2388;53.582;9.962;2022-10-20T06:54:38;7.60;99.90
4749;DHT22;2388;53.582;9.962;2022-10-20T06:57:03;7.70;99.90
4749;DHT22;2388;53.582;9.962;2022-10-20T06:59:29;7.70;99.90
4749;DHT22;2388;53.582;9.962;2022-10-20T07:01:55;7.70;99.90
4749;DHT22;2388;53.582;9.962;2022-10-20T07:04:20;7.70;99.90
4749;DHT22;2388;53.582;9.962;2022-10-20T07:06:47;7.80;99.90
4749;DHT22;2388;53.582;9.962;2022-10-20T07:09:15;7.80;99.90
4749;DHT22;2388;53.582;9.962;2022-10-20T07:11:41;7.90;99.90
4749;DHT22;2388;53.582;9.962;2022-10-20T07:14:08;7.90;99.90
4749;DHT22;2388;53.582;9.962;2022-10-20T07:16:34;7.90;99.90
4749;DHT22;2388;53.582;9.962;2022-10-20T07:19:00;8.00;99.90
4749;DHT22;2388;53.582;9.962;2022-10-20T07:21:28;8.00;99.90
4749;DHT22;2388;53.582;9.962;2022-10-20T07:23:54;8.10;99.90
4749;DHT22;2388;53.582;9.962;2022-10-20T07:26:25;8.30;99.90
4749;DHT22;2388;53.582;9.962;2022-10-20T07:28:57;8.30;99.90
4749;DHT22;2388;53.582;9.962;2022-10-20T07:31:49;8.40;99.90
4749;DHT22;2388;53.582;9.962;2022-10-20T07:34:16;8.60;99.90
4749;DHT22;2388;53.582;9.962;2022-10-20T07:36:43;8.60;99.90
4749;DHT22;2388;53.582;9.962;2022-10-20T07:39:10;8.60;99.90
4749;DHT22;2388;53.582;9.962;2022-10-20T07:41:37;8.70;99.90
4749;DHT22;2388;53.582;9.962;2022-10-20T07:44:05;8.70;99.90
4749;DHT22;2388;53.582;9.962;2022-10-20T07:46:31;8.70;99.90
4749;DHT22;2388;53.582;9.962;2022-10-20T07:48:56;8.80;99.90
4749;DHT22;2388;53.582;9.962;2022-10-20T07:53:59;8.90;99.90
4749;DHT22;2388;53.582;9.962;2022-10-20T07:56:30;9.00;99.90
4749;DHT22;2388;53.582;9.962;2022-10-20T07:58:57;9.10;99.90
4749;DHT22;2388;53.582;9.962;2022-10-20T08:01:22;9.10;99.90
4749;DHT22;2388;53.582;9.962;2022-10-20T08:03:48;9.20;99.90
4749;DHT22;2388;53.582;9.962;2022-10-20T08:06:14;9.20;99.90
4749;DHT22;2388;53.582;9.962;2022-10-20T08:08:39;9.30;99.90
4749;DHT22;2388;53.582;9.962;2022-10-20T08:11:05;9.40;99.90
4749;DHT22;2388;53.582;9.962;2022-10-20T08:13:31;9.40;99.90
4749;DHT22;2388;53.582;9.962;2022-10-20T08:15:56;9.40;99.90
4749;DHT22;2388;53.582;9.962;2022-10-20T08:18:22;9.70;99.90
4749;DHT22;2388;53.582;9.962;2022-10-20T08:20:48;9.80;99.90
4749;DHT22;2388;53.582;9.962;2022-10-20T08:23:14;9.90;99.90
4749;DHT22;2388;53.582;9.962;2022-10-20T08:25:40;10.10;99.90
4749;DHT22;2388;53.582;9.962;2022-10-20T08:28:06;10.20;99.90
4749;DHT22;2388;53.582;9.962;2022-10-20T08:30:32;10.20;99.90
4749;DHT22;2388;53.582;9.962;2022-10-20T08:32:58;10.20;99.90
4749;DHT22;2388;53.582;9.962;2022-10-20T08:35:23;10.10;99.90
4749;DHT22;2388;53.582;9.962;2022-10-20T08:37:49;10.10;99.90
4749;DHT22;2388;53.582;9.962;2022-10-20T08:40:17;10.10;99.90
4749;DHT22;2388;53.582;9.962;2022-10-20T08:42:43;10.10;99.90
4749;DHT22;2388;53.582;9.962;2022-10-20T08:45:15;10.10;99.90
4749;DHT22;2388;53.582;9.962;2022-10-20T08:47:42;10.10;99.90
4749;DHT22;2388;53.582;9.962;2022-10-20T08:50:11;10.10;99.90
4749;DHT22;2388;53.582;9.962;2022-10-20T08:52:39;10.10;99.90
4749;DHT22;2388;53.582;9.962;2022-10-20T08:55:06;10.10;99.90
4749;DHT22;2388;53.582;9.962;2022-10-20T08:57:34;10.20;99.90
4749;DHT22;2388;53.582;9.962;2022-10-20T09:00:16;10.20;99.90
4749;DHT22;2388;53.582;9.962;2022-10-20T09:02:43;10.20;99.90
4749;DHT22;2388;53.582;9.962;2022-10-20T09:05:09;10.20;99.90
4749;DHT22;2388;53.582;9.962;2022-10-20T09:07:37;10.20;99.90
4749;DHT22;2388;53.582;9.962;2022-10-20T09:12:42;10.30;99.90
4749;DHT22;2388;53.582;9.962;2022-10-20T09:15:10;10.30;99.90
4749;DHT22;2388;53.582;9.962;2022-10-20T09:17:38;10.40;99.90
4749;DHT22;2388;53.582;9.962;2022-10-20T09:20:05;10.40;99.90
4749;DHT22;2388;53.582;9.962;2022-10-20T09:22:36;10.40;99.90
4749;DHT22;2388;53.582;9.962;2022-10-20T09:25:02;10.40;99.90
4749;DHT22;2388;53.582;9.962;2022-10-20T09:29:53;10.40;99.90
4749;DHT22;2388;53.582;9.962;2022-10-20T09:32:39;10.50;99.90
4749;DHT22;2388;53.582;9.962;2022-10-20T09:37:40;10.50;99.90
4749;DHT22;2388;53.582;9.962;2022-10-20T09:40:13;10.60;99.90
4749;DHT22;2388;53.582;9.962;2022-10-20T09:42:47;10.60;99.90
4749;DHT22;2388;53.582;9.962;2022-10-20T09:45:21;10.60;99.90
4749;DHT22;2388;53.582;9.962;2022-10-20T09:47:51;10.60;99.90
4749;DHT22;2388;53.582;9.962;2022-10-20T09:50:28;10.70;99.90
4749;DHT22;2388;53.582;9.962;2022-10-20T09:52:55;10.70;99.90
4749;DHT22;2388;53.582;9.962;2022-10-20T09:55:28;10.80;99.90
4749;DHT22;2388;53.582;9.962;2022-10-20T09:57:56;10.80;99.90
4749;DHT22;2388;53.582;9.962;2022-10-20T10:00:31;10.80;99.90
4749;DHT22;2388;53.582;9.962;2022-10-20T10:05:33;10.90;99.90
4749;DHT22;2388;53.582;9.962;2022-10-20T10:07:59;11.00;99.90
4749;DHT22;2388;53.582;9.962;2022-10-20T10:10:27;11.10;99.90
4749;DHT22;2388;53.582;9.962;2022-10-20T10:12:55;11.10;99.90
4749;DHT22;2388;53.582;9.962;2022-10-20T10:17:46;11.20;99.90
4749;DHT22;2388;53.582;9.962;2022-10-20T10:22:38;11.30;99.90
4749;DHT22;2388;53.582;9.962;2022-10-20T10:25:06;11.40;99.90
4749;DHT22;2388;53.582;9.962;2022-10-20T10:27:35;11.40;99.90
4749;DHT22;2388;53.582;9.962;2022-10-20T10:32:51;11.50;99.90
4749;DHT22;2388;53.582;9.962;2022-10-20T10:35:37;11.60;99.90
4749;DHT22;2388;53.582;9.962;2022-10-20T10:38:04;11.70;99.90
4749;DHT22;2388;53.582;9.962;2022-10-20T10:40:37;11.70;99.90
4749;DHT22;2388;53.582;9.962;2022-10-20T10:43:28;11.80;99.90
4749;DHT22;2388;53.582;9.962;2022-10-20T10:46:07;11.90;99.90
4749;DHT22;2388;53.582;9.962;2022-10-20T10:48:39;12.00;99.90
4749;DHT22;2388;53.582;9.962;2022-10-20T10:54:02;12.30;99.90
4749;DHT22;2388;53.582;9.962;2022-10-20T10:56:43;12.70;99.90
4749;DHT22;2388;53.582;9.962;2022-10-20T10:59:10;12.60;99.90
4749;DHT22;2388;53.582;9.962;2022-10-20T11:01:56;12.50;99.90
4749;DHT22;2388;53.582;9.962;2022-10-20T11:07:34;12.80;99.90
4749;DHT22;2388;53.582;9.962;2022-10-20T11:20:55;12.80;99.90
4749;DHT22;2388;53.582;9.962;2022-10-20T11:28:57;12.80;99.90
4749;DHT22;2388;53.582;9.962;2022-10-20T11:33:59;12.80;99.90
4749;DHT22;2388;53.582;9.962;2022-10-20T11:36:31;12.80;99.90
4749;DHT22;2388;53.582;9.962;2022-10-20T11:38:58;12.80;99.90
4749;DHT22;2388;53.582;9.962;2022-10-20T11:44:01;12.70;99.90
4749;DHT22;2388;53.582;9.962;2022-10-20T11:46:39;12.80;99.90
4749;DHT22;2388;53.582;9.962;2022-10-20T11:49:05;12.90;99.90
4749;DHT22;2388;53.582;9.962;2022-10-20T12:03:08;13.40;99.90
4749;DHT22;2388;53.582;9.962;2022-10-20T12:06:05;13.50;99.90
4749;DHT22;2388;53.582;9.962;2022-10-20T12:11:48;13.80;99.90
4749;DHT22;2388;53.582;9.962;2022-10-20T12:14:21;13.80;99.90
4749;DHT22;2388;53.582;9.962;2022-10-20T12:19:27;14.20;99.90
4749;DHT22;2388;53.582;9.962;2022-10-20T12:21:59;14.20;99.90
4749;DHT22;2388;53.582;9.962;2022-10-20T12:32:22;14.10;99.90
4749;DHT22;2388;53.582;9.962;2022-10-20T12:34:55;14.30;99.90
4749;DHT22;2388;53.582;9.962;2022-10-20T12:39:53;14.30;99.80
4749;DHT22;2388;53.582;9.962;2022-10-20T12:42:31;14.30;99.40
4749;DHT22;2388;53.582;9.962;2022-10-20T12:47:31;14.40;99.70
4749;DHT22;2388;53.582;9.962;2022-10-20T12:50:05;14.50;99.00
4749;DHT22;2388;53.582;9.962;2022-10-20T12:52:37;14.60;99.20
4749;DHT22;2388;53.582;9.962;2022-10-20T12:55:16;14.50;98.90
4749;DHT22;2388;53.582;9.962;2022-10-20T12:57:44;14.60;98.60
4749;DHT22;2388;53.582;9.962;2022-10-20T13:02:48;14.50;98.20
4749;DHT22;2388;53.582;9.962;2022-10-20T13:12:49;14.20;98.10
4749;DHT22;2388;53.582;9.962;2022-10-20T13:15:16;14.10;98.40
4749;DHT22;2388;53.582;9.962;2022-10-20T13:20:43;14.00;97.30
4749;DHT22;2388;53.582;9.962;2022-10-20T13:23:15;13.90;97.70
4749;DHT22;2388;53.582;9.962;2022-10-20T13:25:54;13.90;98.20
4749;DHT22;2388;53.582;9.962;2022-10-20T13:28:22;13.90;97.50
4749;DHT22;2388;53.582;9.962;2022-10-20T13:35:56;13.90;97.00
4749;DHT22;2388;53.582;9.962;2022-10-20T13:38:33;13.90;96.20
4749;DHT22;2388;53.582;9.962;2022-10-20T13:41:17;13.80;96.00
4749;DHT22;2388;53.582;9.962;2022-10-20T13:49:18;13.80;95.50
4749;DHT22;2388;53.582;9.962;2022-10-20T13:51:57;13.90;95.90
4749;DHT22;2388;53.582;9.962;2022-10-20T13:54:26;13.90;95.20
4749;DHT22;2388;53.582;9.962;2022-10-20T13:56:53;13.90;94.40
4749;DHT22;2388;53.582;9.962;2022-10-20T13:59:27;13.80;95.00
4749;DHT22;2388;53.582;9.962;2022-10-20T14:02:02;13.80;96.00
4749;DHT22;2388;53.582;9.962;2022-10-20T14:04:45;13.80;96.20
4749;DHT22;2388;53.582;9.962;2022-10-20T14:07:11;13.80;96.60
4749;DHT22;2388;53.582;9.962;2022-10-20T14:09:38;13.80;96.30
4749;DHT22;2388;53.582;9.962;2022-10-20T14:12:20;13.70;96.80
4749;DHT22;2388;53.582;9.962;2022-10-20T14:14:47;13.70;95.80
4749;DHT22;2388;53.582;9.962;2022-10-20T14:17:20;13.70;96.00
4749;DHT22;2388;53.582;9.962;2022-10-20T14:19:46;13.70;96.30
4749;DHT22;2388;53.582;9.962;2022-10-20T14:22:20;13.60;95.70
4749;DHT22;2388;53.582;9.962;2022-10-20T14:24:49;13.60;95.70
4749;DHT22;2388;53.582;9.962;2022-10-20T14:27:29;13.60;96.60
4749;DHT22;2388;53.582;9.962;2022-10-20T14:29:56;13.60;96.60
4749;DHT22;2388;53.582;9.962;2022-10-20T14:32:24;13.50;96.20
4749;DHT22;2388;53.582;9.962;2022-10-20T14:37:44;13.50;96.90
4749;DHT22;2388;53.582;9.962;2022-10-20T14:40:22;13.40;96.60
4749;DHT22;2388;53.582;9.962;2022-10-20T14:42:48;13.40;96.80
4749;DHT22;2388;53.582;9.962;2022-10-20T14:45:24;13.40;96.70
4749;DHT22;2388;53.582;9.962;2022-10-20T14:47:51;13.40;96.60
4749;DHT22;2388;53.582;9.962;2022-10-20T14:52:51;13.30;97.60
4749;DHT22;2388;53.582;9.962;2022-10-20T14:57:52;13.30;98.90
4749;DHT22;2388;53.582;9.962;2022-10-20T15:00:31;13.30;99.10
4749;DHT22;2388;53.582;9.962;2022-10-20T15:02:58;13.20;99.30
4749;DHT22;2388;53.582;9.962;2022-10-20T15:07:52;13.10;99.90
4749;DHT22;2388;53.582;9.962;2022-10-20T15:10:21;13.10;99.90
4749;DHT22;2388;53.582;9.962;2022-10-20T15:12:48;13.00;99.90
4749;DHT22;2388;53.582;9.962;2022-10-20T15:15:21;13.00;99.90
4749;DHT22;2388;53.582;9.962;2022-10-20T15:22:58;13.00;99.90
4749;DHT22;2388;53.582;9.962;2022-10-20T15:25:26;13.00;99.90
4749;DHT22;2388;53.582;9.962;2022-10-20T15:27:52;12.90;99.90
4749;DHT22;2388;53.582;9.962;2022-10-20T15:30:20;12.90;99.90
4749;DHT22;2388;53.582;9.962;2022-10-20T15:32:47;12.90;99.90
4749;DHT22;2388;53.582;9.962;2022-10-20T15:35:14;12.90;99.90
4749;DHT22;2388;53.582;9.962;2022-10-20T15:37:47;12.90;99.90
4749;DHT22;2388;53.582;9.962;2022-10-20T15:40:13;12.80;99.90
4749;DHT22;2388;53.582;9.962;2022-10-20T15:42:38;12.80;99.90
4749;DHT22;2388;53.582;9.962;2022-10-20T15:45:22;12.80;99.90
4749;DHT22;2388;53.582;9.962;2022-10-20T15:47:48;12.70;99.90
4749;DHT22;2388;53.582;9.962;2022-10-20T15:50:14;12.70;99.90
4749;DHT22;2388;53.582;9.962;2022-10-20T15:52:40;12.70;99.90
4749;DHT22;2388;53.582;9.962;2022-10-20T15:55:19;12.60;99.90
4749;DHT22;2388;53.582;9.962;2022-10-20T15:57:48;12.60;99.90
4749;DHT22;2388;53.582;9.962;2022-10-20T16:00:14;12.60;99.90
4749;DHT22;2388;53.582;9.962;2022-10-20T16:02:40;12.60;99.90
4749;DHT22;2388;53.582;9.962;2022-10-20T16:05:06;12.60;99.90
4749;DHT22;2388;53.582;9.962;2022-10-20T16:07:31;12.60;99.90
4749;DHT22;2388;53.582;9.962;2022-10-20T16:09:57;12.50;99.90
4749;DHT22;2388;53.582;9.962;2022-10-20T16:12:22;12.50;99.90
4749;DHT22;2388;53.582;9.962;2022-10-20T16:14:48;12.50;99.90
4749;DHT22;2388;53.582;9.962;2022-10-20T16:17:13;12.50;99.90
4749;DHT22;2388;53.582;9.962;2022-10-20T16:19:39;12.50;99.90
4749;DHT22;2388;53.582;9.962;2022-10-20T16:22:04;12.40;99.90
4749;DHT22;2388;53.582;9.962;2022-10-20T16:24:29;12.40;99.90
4749;DHT22;2388;53.582;9.962;2022-10-20T16:26:55;12.40;99.90
4749;DHT22;2388;53.582;9.962;2022-10-20T16:29:20;12.50;99.90
4749;DHT22;2388;53.582;9.962;2022-10-20T16:31:47;12.50;99.90
4749;DHT22;2388;53.582;9.962;2022-10-20T16:34:12;12.60;99.90
4749;DHT22;2388;53.582;9.962;2022-10-20T16:36:38;12.50;99.90
4749;DHT22;2388;53.582;9.962;2022-10-20T16:39:03;12.50;99.90
4749;DHT22;2388;53.582;9.962;2022-10-20T16:41:29;12.50;99.90
4749;DHT22;2388;53.582;9.962;2022-10-20T16:43:54;12.40;99.90
4749;DHT22;2388;53.582;9.962;2022-10-20T16:46:20;12.40;99.90
4749;DHT22;2388;53.582;9.962;2022-10-20T16:48:45;12.40;99.90
4749;DHT22;2388;53.582;9.962;2022-10-20T16:51:11;12.40;99.90
4749;DHT22;2388;53.582;9.962;2022-10-20T16:53:37;12.40;99.90
4749;DHT22;2388;53.582;9.962;2022-10-20T16:56:03;12.30;99.90
4749;DHT22;2388;53.582;9.962;2022-10-20T16:58:29;12.30;99.90
4749;DHT22;2388;53.582;9.962;2022-10-20T17:03:21;12.30;99.90
4749;DHT22;2388;53.582;9.962;2022-10-20T17:05:53;12.30;99.90
4749;DHT22;2388;53.582;9.962;2022-10-20T17:08:19;12.30;99.90
4749;DHT22;2388;53.582;9.962;2022-10-20T17:10:44;12.30;99.90
4749;DHT22;2388;53.582;9.962;2022-10-20T17:13:11;12.30;99.90
4749;DHT22;2388;53.582;9.962;2022-10-20T17:15:37;12.20;99.90
4749;DHT22;2388;53.582;9.962;2022-10-20T17:18:02;12.20;99.90
4749;DHT22;2388;53.582;9.962;2022-10-20T17:20:28;12.10;99.90
4749;DHT22;2388;53.582;9.962;2022-10-20T17:22:53;12.10;99.90
4749;DHT22;2388;53.582;9.962;2022-10-20T17:25:19;12.10;99.90
4749;DHT22;2388;53.582;9.962;2022-10-20T17:27:45;12.10;99.90
4749;DHT22;2388;53.582;9.962;2022-10-20T17:30:11;12.10;99.90
4749;DHT22;2388;53.582;9.962;2022-10-20T17:32:38;12.00;99.90
4749;DHT22;2388;53.582;9.962;2022-10-20T17:35:04;12.00;99.90
4749;DHT22;2388;53.582;9.962;2022-10-20T17:37:30;12.00;99.90
4749;DHT22;2388;53.582;9.962;2022-10-20T17:39:55;12.00;99.90
4749;DHT22;2388;53.582;9.962;2022-10-20T17:42:21;12.00;99.90
4749;DHT22;2388;53.582;9.962;2022-10-20T17:44:46;12.00;99.90
4749;DHT22;2388;53.582;9.962;2022-10-20T17:47:12;12.00;99.90
4749;DHT22;2388;53.582;9.962;2022-10-20T17:49:37;12.00;99.90
4749;DHT22;2388;53.582;9.962;2022-10-20T17:52:02;12.00;99.90
4749;DHT22;2388;53.582;9.962;2022-10-20T17:54:28;12.00;99.90
4749;DHT22;2388;53.582;9.962;2022-10-20T17:56:53;12.00;99.90
4749;DHT22;2388;53.582;9.962;2022-10-20T17:59:19;12.00;99.90
4749;DHT22;2388;53.582;9.962;2022-10-20T18:01:45;12.00;99.90
4749;DHT22;2388;53.582;9.962;2022-10-20T18:04:15;12.00;99.90
4749;DHT22;2388;53.582;9.962;2022-10-20T18:06:41;12.00;99.90
4749;DHT22;2388;53.582;9.962;2022-10-20T18:09:09;12.00;99.90
4749;DHT22;2388;53.582;9.962;2022-10-20T18:11:36;12.00;99.90
4749;DHT22;2388;53.582;9.962;2022-10-20T18:14:02;12.00;99.90
4749;DHT22;2388;53.582;9.962;2022-10-20T18:16:30;12.00;99.90
4749;DHT22;2388;53.582;9.962;2022-10-20T18:18:56;12.00;99.90
4749;DHT22;2388;53.582;9.962;2022-10-20T18:21:22;11.90;99.90
4749;DHT22;2388;53.582;9.962;2022-10-20T18:23:52;11.90;99.90
4749;DHT22;2388;53.582;9.962;2022-10-20T18:26:18;11.90;99.90
4749;DHT22;2388;53.582;9.962;2022-10-20T18:28:45;11.90;99.90
4749;DHT22;2388;53.582;9.962;2022-10-20T18:31:13;11.90;99.90
4749;DHT22;2388;53.582;9.962;2022-10-20T18:33:41;11.90;99.90